Time;durP1;ratioP1;P1;durP2;ratioP2;P2;SDS_P1;SDS_P2;PMS_P1;PMS_P2;Temp;Humidity;BMP_temperature;BMP_pressure;BME280_temperature;BME280_humidity;BME280_pressure;Samples;Min_cycle;Max_cycle;Signal;HPM_P1;HPM_P2
2021/07/10 00:00:29;;;;;;;13.80;12.35;;;;;;;17.05;100.00;101163.63;4952348;28;20230;-77
2021/07/10 00:02:57;;;;;;;16.33;12.25;;;;;;;17.05;100.00;101163.63;4961680;28;20209;-77
2021/07/10 00:05:25;;;;;;;14.30;12.80;;;;;;;17.05;100.00;101163.63;4994814;28;20221;-77
2021/07/10 00:07:53;;;;;;;14.52;12.95;;;;;;;-132.91;100.00;77879.44;4959955;28;20186;-76
2021/07/10 00:10:19;;;;;;;16.33;13.65;;;;;;;-92.71;100.00;92037.69;4958254;28;20730;-77
2021/07/10 00:12:44;;;;;;;14.57;13.13;;;;;;;17.05;100.00;101163.63;4974952;28;20182;-77
2021/07/10 00:15:17;;;;;;;15.80;13.07;;;;;;;17.05;100.00;101163.63;4959817;28;20185;-77
2021/07/10 00:17:43;;;;;;;18.40;13.43;;;;;;;-138.13;100.00;101163.63;4960723;28;20225;-77
2021/07/10 00:20:11;;;;;;;19.05;13.98;;;;;;;-138.14;100.00;101163.63;4961982;28;20209;-77
2021/07/10 00:22:38;;;;;;;17.15;13.95;;;;;;;17.05;100.00;101163.63;4995150;28;20605;-77
2021/07/10 00:25:07;;;;;;;16.15;13.20;;;;;;;17.05;100.00;101163.63;4976278;28;20193;-77
2021/07/10 00:27:33;;;;;;;15.50;13.70;;;;;;;-138.13;100.00;77828.25;4990475;28;20217;-77
2021/07/10 00:30:03;;;;;;;16.00;13.98;;;;;;;17.05;100.00;101163.63;4958000;28;20205;-77
2021/07/10 00:32:29;;;;;;;17.20;13.65;;;;;;;-138.13;100.00;77828.56;4995228;28;20306;-78
2021/07/10 00:34:56;;;;;;;16.05;13.38;;;;;;;-138.14;100.00;101163.63;4963494;28;20193;-77
2021/07/10 00:37:22;;;;;;;18.48;13.70;;;;;;;17.05;100.00;121491.06;4966433;28;20232;-78
2021/07/10 00:39:47;;;;;;;16.40;14.00;;;;;;;-138.13;100.00;77828.25;4967798;28;20602;-78
2021/07/10 00:42:17;;;;;;;15.30;13.65;;;;;;;17.05;100.00;101163.63;4962901;28;20224;-78
2021/07/10 00:44:43;;;;;;;19.23;14.80;;;;;;;-92.71;100.00;92037.69;4976729;28;20188;-78
2021/07/10 00:47:08;;;;;;;14.73;13.32;;;;;;;17.05;100.00;101163.63;5014539;28;20758;-78
2021/07/10 00:49:38;;;;;;;15.45;13.35;;;;;;;17.05;100.00;101163.63;4950105;28;20217;-78
2021/07/10 00:52:06;;;;;;;15.90;14.20;;;;;;;17.05;100.00;101163.63;4956989;28;20222;-78
2021/07/10 00:54:34;;;;;;;15.95;13.45;;;;;;;-138.13;100.00;77828.56;4964016;28;20838;-77
2021/07/10 00:57:02;;;;;;;14.55;12.30;;;;;;;-138.13;100.00;77828.56;4963830;28;20221;-78
2021/07/10 00:59:28;;;;;;;15.07;12.68;;;;;;;-138.13;100.00;77828.56;4958544;28;20239;-78
2021/07/10 01:01:58;;;;;;;14.50;13.00;;;;;;;-138.13;100.00;77828.25;4946132;28;20217;-78
2021/07/10 01:04:23;;;;;;;15.13;13.00;;;;;;;17.05;100.00;121491.06;4972666;28;20185;-77
2021/07/10 01:06:51;;;;;;;15.17;13.50;;;;;;;-138.13;100.00;77828.56;5000711;28;20266;-77
2021/07/10 01:09:22;;;;;;;15.30;12.73;;;;;;;17.05;100.00;101163.63;4963052;28;20213;-78
2021/07/10 01:11:47;;;;;;;15.00;13.40;;;;;;;-138.13;100.00;119709.88;4930077;28;20605;-77
2021/07/10 01:14:15;;;;;;;17.58;13.57;;;;;;;-138.13;100.00;63448.66;4935056;28;20182;-77
2021/07/10 01:16:43;;;;;;;16.17;13.85;;;;;;;17.05;100.00;101163.63;4963037;28;20325;-77
2021/07/10 01:19:11;;;;;;;14.97;13.37;;;;;;;17.05;100.00;101163.63;4954151;29;20202;-77
2021/07/10 01:21:39;;;;;;;18.87;14.23;;;;;;;17.05;100.00;101163.63;4951347;28;20222;-77
2021/07/10 01:24:11;;;;;;;15.25;13.55;;;;;;;17.05;100.00;101163.63;4945747;28;20182;-77
2021/07/10 01:26:37;;;;;;;15.87;13.80;;;;;;;17.05;100.00;101163.63;4961446;28;20944;-78
2021/07/10 01:29:07;;;;;;;15.23;13.63;;;;;;;-138.13;100.00;101163.63;4961873;28;20415;-77
2021/07/10 01:31:35;;;;;;;17.15;13.98;;;;;;;17.05;100.00;101163.63;4960404;28;20289;-77
2021/07/10 01:34:02;;;;;;;17.60;14.20;;;;;;;17.05;100.00;101163.63;4975123;28;20183;-77
2021/07/10 01:36:29;;;;;;;17.58;14.23;;;;;;;17.05;100.00;101163.63;4945760;28;20320;-77
2021/07/10 01:38:54;;;;;;;16.35;14.20;;;;;;;17.05;100.00;101163.63;4961158;28;20194;-77
2021/07/10 01:41:22;;;;;;;17.95;14.25;;;;;;;17.05;100.00;101163.63;4942486;28;20394;-77
2021/07/10 01:43:47;;;;;;;16.30;14.45;;;;;;;17.05;100.00;101163.63;4958432;28;20203;-77
2021/07/10 01:46:15;;;;;;;17.55;14.35;;;;;;;17.05;100.00;121491.06;4960922;28;20221;-77
2021/07/10 01:48:45;;;;;;;16.05;14.00;;;;;;;-138.13;100.00;77828.56;4961715;28;20181;-77
2021/07/10 01:51:16;;;;;;;17.88;14.43;;;;;;;17.05;100.00;121491.06;4957931;28;20276;-78
2021/07/10 01:53:46;;;;;;;19.73;14.85;;;;;;;-138.13;100.00;77828.56;4982093;28;20248;-77
2021/07/10 01:56:16;;;;;;;20.27;14.73;;;;;;;17.05;100.00;101163.63;5005359;28;20309;-78
2021/07/10 01:58:42;;;;;;;17.83;14.80;;;;;;;17.05;100.00;101163.63;4994483;28;20201;-78
2021/07/10 02:01:07;;;;;;;18.20;14.60;;;;;;;-138.14;100.00;77828.56;4940561;28;20214;-77
2021/07/10 02:03:38;;;;;;;17.03;14.73;;;;;;;17.05;100.00;101163.63;4966704;28;20190;-77
2021/07/10 02:06:06;;;;;;;16.92;14.40;;;;;;;-138.13;100.00;77828.56;4981517;28;20231;-78
2021/07/10 02:08:33;;;;;;;18.10;14.55;;;;;;;-138.13;100.00;101163.63;4967332;28;20187;-77
2021/07/10 02:10:59;;;;;;;22.20;15.27;;;;;;;17.05;100.00;101163.63;4965242;28;20595;-77
2021/07/10 02:13:25;;;;;;;18.30;14.40;;;;;;;-138.13;100.00;77828.56;4957514;28;20225;-77
2021/07/10 02:15:53;;;;;;;17.00;14.68;;;;;;;17.05;100.00;101163.63;4977504;28;20634;-77
2021/07/10 02:18:18;;;;;;;17.27;14.82;;;;;;;17.05;100.00;101163.63;4979981;28;20620;-77
2021/07/10 02:20:46;;;;;;;18.42;14.73;;;;;;;-138.14;100.00;63448.66;4977439;28;20310;-77
2021/07/10 02:23:12;;;;;;;17.10;14.95;;;;;;;17.05;100.00;101163.63;4953057;28;20191;-77
2021/07/10 02:25:42;;;;;;;17.87;14.67;;;;;;;17.05;100.00;101163.63;4989458;28;20221;-77
2021/07/10 02:28:12;;;;;;;21.20;15.60;;;;;;;17.05;100.00;101163.63;4972906;28;20617;-78
2021/07/10 02:30:37;;;;;;;16.93;14.00;;;;;;;17.05;100.00;77828.25;5000256;28;20777;-78
2021/07/10 02:33:04;;;;;;;19.30;15.53;;;;;;;17.05;100.00;121491.06;4967127;28;20189;-78
2021/07/10 02:35:30;;;;;;;20.57;14.77;;;;;;;17.05;100.00;101163.63;4977390;28;20245;-78
2021/07/10 02:38:02;;;;;;;17.87;14.00;;;;;;;-138.13;100.00;77828.56;4948005;28;20209;-77
2021/07/10 02:40:30;;;;;;;16.37;13.80;;;;;;;17.05;100.00;153383.94;4964543;28;20930;-77
2021/07/10 02:42:58;;;;;;;17.00;13.37;;;;;;;-138.13;29.84;77828.56;4964511;28;20706;-78
2021/07/10 02:45:24;;;;;;;16.65;13.57;;;;;;;-138.14;100.00;63448.66;4997041;28;20185;-77
2021/07/10 02:47:52;;;;;;;18.90;14.00;;;;;;;17.05;100.00;101163.63;4963517;28;20181;-77
2021/07/10 02:50:19;;;;;;;14.50;13.00;;;;;;;17.05;100.00;101163.63;4963733;28;20202;-78
2021/07/10 02:52:47;;;;;;;15.32;13.52;;;;;;;17.05;100.00;101163.63;4981495;28;20189;-77
2021/07/10 02:55:13;;;;;;;15.52;13.10;;;;;;;17.05;100.00;101163.63;4964882;28;20192;-77
2021/07/10 02:57:41;;;;;;;16.67;13.55;;;;;;;-138.13;100.00;77828.56;4946325;28;20260;-77
2021/07/10 03:00:13;;;;;;;18.20;14.35;;;;;;;17.05;100.00;101163.63;4975078;28;20202;-76
2021/07/10 03:02:43;;;;;;;17.90;14.20;;;;;;;17.05;100.00;101163.63;4963361;28;20185;-77
2021/07/10 03:05:09;;;;;;;17.95;13.43;;;;;;;17.05;100.00;101163.63;4982224;28;20247;-78
2021/07/10 03:07:36;;;;;;;15.30;13.70;;;;;;;17.05;100.00;101163.63;4972130;28;20682;-77
2021/07/10 03:10:08;;;;;;;14.70;12.63;;;;;;;17.05;100.00;101163.63;4964976;28;20198;-78
2021/07/10 03:12:35;;;;;;;15.70;13.33;;;;;;;17.05;100.00;101163.63;5007366;28;20199;-78
2021/07/10 03:15:06;;;;;;;14.70;12.97;;;;;;;-138.13;100.00;101163.63;4979164;28;20188;-77
2021/07/10 03:17:33;;;;;;;16.70;13.87;;;;;;;17.05;100.00;101163.63;4978058;28;20786;-78
2021/07/10 03:20:03;;;;;;;15.20;13.47;;;;;;;-138.13;100.00;77828.56;4984790;28;20758;-78
2021/07/10 03:22:29;;;;;;;15.83;13.77;;;;;;;17.05;100.00;101163.63;4983680;28;20299;-77
2021/07/10 03:24:57;;;;;;;16.93;13.40;;;;;;;17.05;100.00;121491.06;4989094;28;20181;-78
2021/07/10 03:27:25;;;;;;;16.87;14.50;;;;;;;17.05;100.00;101163.63;4972332;28;20222;-78
2021/07/10 03:29:53;;;;;;;15.67;12.87;;;;;;;17.05;100.00;101163.63;4950867;28;20715;-77
2021/07/10 03:32:21;;;;;;;16.87;13.87;;;;;;;17.05;100.00;101163.63;4981394;28;20221;-78
2021/07/10 03:34:50;;;;;;;16.97;13.80;;;;;;;17.05;100.00;101163.63;4996440;28;20266;-78
2021/07/10 03:37:18;;;;;;;16.90;13.47;;;;;;;17.05;100.00;101163.63;4966974;28;20218;-77
2021/07/10 03:39:45;;;;;;;18.13;14.70;;;;;;;17.05;100.00;101163.63;4958715;28;20244;-77
2021/07/10 03:42:16;;;;;;;18.70;14.83;;;;;;;17.05;100.00;101163.63;4973962;28;20281;-77
2021/07/10 03:44:44;;;;;;;17.70;14.43;;;;;;;17.05;100.00;101163.63;4978532;28;20548;-77
2021/07/10 03:47:15;;;;;;;16.00;14.03;;;;;;;-138.13;100.00;119709.88;4952109;28;20249;-77
2021/07/10 03:49:41;;;;;;;15.97;14.27;;;;;;;-138.13;100.00;77828.56;4973607;28;20627;-77
2021/07/10 03:52:07;;;;;;;17.38;15.00;;;;;;;-138.13;100.00;77828.56;4985102;28;20279;-77
2021/07/10 03:54:32;;;;;;;20.50;15.87;;;;;;;-138.13;100.00;101163.63;4945045;28;20226;-77
2021/07/10 03:57:03;;;;;;;19.13;15.48;;;;;;;17.05;100.00;101163.63;4960265;28;20222;-78
2021/07/10 03:59:30;;;;;;;17.47;14.93;;;;;;;17.05;100.00;101163.63;4943747;28;20218;-78
2021/07/10 04:01:56;;;;;;;19.93;15.07;;;;;;;-138.14;100.00;101163.63;4963182;28;20264;-78
2021/07/10 04:04:22;;;;;;;20.63;15.97;;;;;;;17.05;100.00;101163.63;4978174;28;20185;-78
2021/07/10 04:06:56;;;;;;;19.07;15.13;;;;;;;17.05;100.00;101163.63;4944802;28;20764;-78
2021/07/10 04:09:24;;;;;;;19.43;14.70;;;;;;;17.05;100.00;101163.63;4993360;28;20209;-78
2021/07/10 04:11:52;;;;;;;19.27;15.00;;;;;;;-138.13;100.00;77828.56;4979682;28;20303;-78
2021/07/10 04:14:25;;;;;;;19.50;15.55;;;;;;;17.05;100.00;101163.63;4968902;28;20275;-78
2021/07/10 04:16:51;;;;;;;17.93;14.13;;;;;;;17.05;100.00;101163.63;4984826;28;20214;-77
2021/07/10 04:19:17;;;;;;;16.47;14.33;;;;;;;-138.13;100.00;77828.56;4955154;28;20189;-77
2021/07/10 04:21:45;;;;;;;16.97;14.40;;;;;;;17.05;100.00;101163.63;4967190;28;20214;-78
2021/07/10 04:24:16;;;;;;;16.83;14.20;;;;;;;17.05;100.00;101163.63;4976260;28;20188;-77
2021/07/10 04:26:54;;;;;;;17.53;13.67;;;;;;;17.05;100.00;101163.63;4959336;28;20415;-76
2021/07/10 04:29:20;;;;;;;20.90;15.70;;;;;;;17.05;100.00;101163.63;4950223;28;20208;-77
2021/07/10 04:31:46;;;;;;;17.53;14.20;;;;;;;-138.13;100.00;77828.56;4975593;28;20213;-77
2021/07/10 04:34:14;;;;;;;17.27;14.17;;;;;;;17.05;100.00;101163.63;4994412;28;20177;-77
2021/07/10 04:36:39;;;;;;;18.00;14.73;;;;;;;17.05;100.00;101163.63;4979858;28;20228;-77
2021/07/10 04:39:05;;;;;;;17.37;14.17;;;;;;;17.05;100.00;101163.63;4947858;28;20651;-78
2021/07/10 04:41:31;;;;;;;18.23;14.23;;;;;;;17.05;100.00;101163.63;4963425;28;20778;-77
2021/07/10 04:43:57;;;;;;;15.88;14.05;;;;;;;17.05;100.00;101163.63;4978392;28;20185;-77
2021/07/10 04:46:25;;;;;;;16.63;13.60;;;;;;;17.05;100.00;101163.63;4966309;28;20759;-77
2021/07/10 04:48:51;;;;;;;17.13;13.63;;;;;;;17.05;100.00;101163.63;4984044;28;20181;-78
2021/07/10 04:51:16;;;;;;;19.10;13.15;;;;;;;15.76;100.00;101038.81;4948857;28;20579;-78
2021/07/10 04:53:42;;;;;;;15.75;13.35;;;;;;;15.93;100.00;101023.47;4962501;28;20277;-78
2021/07/10 04:56:08;;;;;;;15.07;12.93;;;;;;;16.01;100.00;101031.03;4986095;28;20225;-78
2021/07/10 04:58:38;;;;;;;13.57;12.02;;;;;;;15.64;100.00;101021.19;4961046;28;20194;-78
2021/07/10 05:01:12;;;;;;;13.77;11.55;;;;;;;15.88;100.00;101025.50;4988884;28;20290;-77
2021/07/10 05:03:41;;;;;;;13.02;11.48;;;;;;;15.88;100.00;101025.50;4974784;28;20188;-77
2021/07/10 05:06:10;;;;;;;13.85;11.77;;;;;;;15.91;100.00;101030.34;4998401;28;20217;-76
2021/07/10 05:08:38;;;;;;;12.83;11.27;;;;;;;15.91;100.00;101030.34;4965862;28;20979;-78
2021/07/10 05:11:03;;;;;;;12.00;10.80;;;;;;;15.91;100.00;101030.34;4969093;28;20606;-77
2021/07/10 05:13:29;;;;;;;13.90;10.95;;;;;;;15.91;100.00;101030.34;4975339;28;20185;-76
2021/07/10 05:15:57;;;;;;;11.70;10.50;;;;;;;15.91;100.00;101030.34;4983136;28;20228;-78
2021/07/10 05:18:23;;;;;;;11.40;10.07;;;;;;;15.91;100.00;101030.34;5009941;28;20671;-78
2021/07/10 05:20:53;;;;;;;11.63;9.90;;;;;;;15.91;100.00;101030.34;4998026;28;20229;-79
2021/07/10 05:23:19;;;;;;;13.98;11.40;;;;;;;15.91;100.00;101030.34;4972738;28;20196;-80
2021/07/10 05:25:47;;;;;;;12.88;10.93;;;;;;;15.99;100.00;101038.72;4986497;28;20227;-81
2021/07/10 05:28:13;;;;;;;12.10;10.90;;;;;;;16.27;100.00;101027.59;4994969;28;20181;-81
2021/07/10 05:30:40;;;;;;;12.45;10.60;;;;;;;16.43;100.00;101023.47;4967111;28;20221;-80
2021/07/10 05:33:06;;;;;;;12.30;9.70;;;;;;;16.47;100.00;101034.66;4968404;28;20269;-79
2021/07/10 05:35:34;;;;;;;11.20;9.60;;;;;;;16.33;100.00;101026.38;4950662;28;20373;-80
2021/07/10 05:38:02;;;;;;;10.13;9.13;;;;;;;16.45;100.00;101036.88;4966700;28;20241;-80
2021/07/10 05:40:28;;;;;;;9.43;8.43;;;;;;;16.51;100.00;101030.19;4969084;28;20234;-79
2021/07/10 05:42:56;;;;;;;9.70;8.45;;;;;;;16.67;100.00;101040.59;5002948;28;20200;-80
2021/07/10 05:45:33;;;;;;;10.32;7.95;;;;;;;16.69;100.00;101041.91;5000053;28;20222;-80
2021/07/10 05:48:01;;;;;;;8.88;7.97;;;;;;;16.68;100.00;101033.97;4981573;28;20181;-79
2021/07/10 05:50:29;;;;;;;9.07;8.15;;;;;;;16.93;100.00;101026.88;4949317;28;20229;-79
2021/07/10 05:52:56;;;;;;;10.20;8.52;;;;;;;17.21;100.00;101030.47;4966368;28;20643;-81
2021/07/10 05:55:25;;;;;;;9.00;8.10;;;;;;;17.30;100.00;101036.88;4999606;28;20201;-79
2021/07/10 05:57:53;;;;;;;9.40;7.80;;;;;;;17.19;100.00;101039.00;4993744;28;20213;-80
2021/07/10 06:00:23;;;;;;;9.60;8.60;;;;;;;17.14;100.00;101036.34;4957529;28;20202;-80
2021/07/10 06:02:49;;;;;;;8.23;7.43;;;;;;;17.28;100.00;101036.38;4963900;28;20184;-79
2021/07/10 06:05:15;;;;;;;8.32;7.53;;;;;;;17.35;100.00;101032.88;4965610;28;20173;-81
2021/07/10 06:07:43;;;;;;;8.65;7.57;;;;;;;17.45;100.00;101031.84;4965595;28;20582;-81
2021/07/10 06:10:12;;;;;;;8.25;7.03;;;;;;;17.61;100.00;101031.22;4974941;28;20201;-80
2021/07/10 06:12:40;;;;;;;7.88;7.15;;;;;;;17.75;100.00;101034.75;5001404;28;20278;-81
2021/07/10 06:15:09;;;;;;;8.48;7.22;;;;;;;17.89;100.00;101027.25;4984943;28;20193;-79
2021/07/10 06:17:37;;;;;;;7.38;6.13;;;;;;;17.79;100.00;101022.81;4994623;28;20225;-80
2021/07/10 06:20:04;;;;;;;7.95;7.15;;;;;;;17.97;100.00;101032.03;5002156;28;20351;-78
2021/07/10 06:22:32;;;;;;;7.05;6.30;;;;;;;17.96;100.00;101022.94;5002263;28;20184;-81
2021/07/10 06:25:00;;;;;;;7.25;6.50;;;;;;;18.13;100.00;101031.34;4991144;28;20189;-79
2021/07/10 06:27:33;;;;;;;8.18;6.38;;;;;;;18.35;100.00;101020.34;4963414;28;20213;-80
2021/07/10 06:30:02;;;;;;;6.43;5.85;;;;;;;18.57;100.00;101024.69;4974893;28;20194;-80
2021/07/10 06:32:33;;;;;;;7.00;6.30;;;;;;;18.38;100.00;101025.22;4947190;28;20228;-80
2021/07/10 06:35:01;;;;;;;7.80;6.03;;;;;;;18.25;100.00;101026.91;4964855;28;20185;-79
2021/07/10 06:37:29;;;;;;;6.55;5.95;;;;;;;18.40;100.00;101017.47;4963885;28;20231;-80
2021/07/10 06:39:54;;;;;;;6.43;5.82;;;;;;;18.40;100.00;101018.28;4971750;28;20349;-79
2021/07/10 06:42:20;;;;;;;5.65;5.13;;;;;;;18.40;100.00;101034.78;4964703;28;20229;-78
2021/07/10 06:44:51;;;;;;;5.72;5.22;;;;;;;18.23;100.00;101022.88;4956889;28;20179;-79
2021/07/10 06:47:18;;;;;;;5.40;4.90;;;;;;;18.22;100.00;101030.31;4956872;28;20210;-80
2021/07/10 06:49:44;;;;;;;5.60;5.10;;;;;;;18.34;100.00;101030.53;4957785;28;20220;-80
2021/07/10 06:52:10;;;;;;;5.40;4.90;;;;;;;18.48;100.00;101036.78;4949354;28;20675;-77
2021/07/10 06:54:38;;;;;;;4.80;4.38;;;;;;;18.61;100.00;101025.69;4986166;28;20190;-78
2021/07/10 06:57:09;;;;;;;4.72;4.32;;;;;;;18.54;100.00;101041.03;4964387;28;20679;-80
2021/07/10 06:59:34;;;;;;;4.25;3.85;;;;;;;18.39;100.00;101049.69;4987709;28;20722;-79
2021/07/10 07:02:00;;;;;;;4.90;4.38;;;;;;;18.64;100.00;101043.50;4947991;28;20217;-79
2021/07/10 07:04:28;;;;;;;5.05;4.65;;;;;;;19.18;100.00;101042.00;4962662;28;20185;-79
2021/07/10 07:06:53;;;;;;;5.72;4.55;;;;;;;19.65;100.00;101041.13;4929298;28;20222;-81
2021/07/10 07:09:21;;;;;;;4.65;3.88;;;;;;;19.72;100.00;101043.13;4945298;28;20202;-80
2021/07/10 07:11:50;;;;;;;4.40;4.00;;;;;;;19.71;100.00;101047.00;4943523;28;20606;-79
2021/07/10 07:14:15;;;;;;;6.22;4.15;;;;;;;19.82;100.00;101042.81;4943271;28;20198;-78
2021/07/10 07:16:43;;;;;;;5.82;4.45;;;;;;;19.63;100.00;101046.97;4957671;28;20362;-77
2021/07/10 07:19:09;;;;;;;4.78;4.38;;;;;;;19.49;100.00;101059.28;4940316;28;20810;-77
2021/07/10 07:21:35;;;;;;;4.35;4.00;;;;;;;19.35;100.00;101058.59;4945860;28;20755;-77
2021/07/10 07:24:00;;;;;;;4.40;4.10;;;;;;;19.46;100.00;101048.88;4956500;28;20253;-75
2021/07/10 07:26:35;;;;;;;4.90;4.32;;;;;;;19.70;100.00;101050.06;4936465;29;20222;-77
2021/07/10 07:29:01;;;;;;;4.25;3.95;;;;;;;19.68;100.00;101064.16;4953260;28;20189;-77
2021/07/10 07:31:27;;;;;;;4.25;3.75;;;;;;;19.83;100.00;101060.97;4965145;28;20230;-76
2021/07/10 07:33:55;;;;;;;4.00;3.60;;;;;;;20.06;100.00;101050.63;4985486;28;20178;-76
2021/07/10 07:36:21;;;;;;;4.80;4.40;;;;;;;20.05;98.87;101052.53;4961940;28;20759;-78
2021/07/10 07:38:46;;;;;;;4.50;4.10;;;;;;;20.02;96.15;101055.97;4960578;28;20196;-76
2021/07/10 07:41:12;;;;;;;4.57;4.13;;;;;;;20.29;97.92;101058.38;4992369;28;20625;-77
2021/07/10 07:43:37;;;;;;;4.82;4.38;;;;;;;20.21;94.09;101050.94;4943950;28;20200;-77
2021/07/10 07:46:03;;;;;;;4.55;4.15;;;;;;;20.26;96.31;101053.53;4939487;28;20221;-77
2021/07/10 07:48:28;;;;;;;4.90;4.50;;;;;;;20.27;95.63;101060.66;4957179;28;20602;-75
2021/07/10 07:51:08;;;;;;;12.90;10.50;;;;;;;20.43;94.00;101055.13;4960781;28;20231;-79
2021/07/10 07:53:44;;;;;;;7.72;6.93;;;;;;;20.85;92.56;101040.44;5014199;28;20229;-78
2021/07/10 07:56:30;;;;;;;5.20;4.68;;;;;;;20.27;92.68;101055.13;4972950;28;20218;-77
2021/07/10 08:01:31;;;;;;;5.68;5.18;;;;;;;20.66;89.88;101048.28;5196323;23;20221;-79
2021/07/10 08:03:59;;;;;;;6.03;5.10;;;;;;;20.72;91.85;101060.78;4975684;28;20186;-76
2021/07/10 08:06:28;;;;;;;5.60;5.05;;;;;;;21.03;88.55;101056.59;4942592;28;20221;-78
2021/07/10 08:08:58;;;;;;;5.43;4.93;;;;;;;20.73;92.77;101053.28;4966476;28;20188;-79
2021/07/10 08:11:23;;;;;;;5.70;5.20;;;;;;;20.87;88.21;101049.19;4983536;28;20309;-77
2021/07/10 08:13:49;;;;;;;5.53;5.03;;;;;;;21.08;89.94;101050.91;4955957;28;20734;-76
2021/07/10 08:16:17;;;;;;;5.80;5.30;;;;;;;20.94;87.08;101038.44;4978902;28;20224;-78
2021/07/10 08:18:43;;;;;;;6.38;5.78;;;;;;;20.82;87.79;101041.06;4974877;28;20184;-77
2021/07/10 08:21:08;;;;;;;6.65;5.30;;;;;;;21.04;87.28;101043.59;4963261;28;20221;-80
2021/07/10 08:23:34;;;;;;;6.40;5.80;;;;;;;20.81;87.00;101045.00;4994515;28;20192;-76
2021/07/10 08:26:00;;;;;;;6.35;5.50;;;;;;;21.20;87.25;101044.66;4991217;28;20629;-76
2021/07/10 08:28:28;;;;;;;9.93;9.00;;;;;;;21.13;86.55;101042.41;4968328;28;20188;-77
2021/07/10 08:30:54;;;;;;;33.20;28.75;;;;;;;21.45;86.46;101036.28;4954702;28;20217;-76
2021/07/10 08:33:19;;;;;;;6.40;5.75;;;;;;;21.09;85.15;101035.13;4960911;28;20600;-77
2021/07/10 08:35:45;;;;;;;5.60;5.10;;;;;;;21.16;86.43;101040.97;4984976;28;20261;-79
2021/07/10 08:38:10;;;;;;;5.53;5.03;;;;;;;21.47;85.54;101029.25;4967032;28;20216;-79
2021/07/10 08:40:38;;;;;;;6.40;5.57;;;;;;;21.65;85.11;101028.81;4919707;29;20593;-76
2021/07/10 08:43:07;;;;;;;5.32;4.93;;;;;;;21.72;81.69;101036.56;4942348;28;20225;-79
2021/07/10 08:45:33;;;;;;;5.50;5.00;;;;;;;21.60;85.16;101028.19;4954027;28;20682;-79
2021/07/10 08:47:58;;;;;;;5.63;4.88;;;;;;;21.77;82.26;101026.09;4990256;28;20267;-80
2021/07/10 08:50:29;;;;;;;5.68;5.05;;;;;;;21.85;82.08;101021.66;4980752;28;20221;-79
2021/07/10 08:52:55;;;;;;;5.75;5.15;;;;;;;21.85;80.86;101030.78;4985136;28;20676;-78
2021/07/10 08:55:20;;;;;;;5.03;4.60;;;;;;;21.62;83.84;101035.00;4960868;28;20190;-79
2021/07/10 08:57:48;;;;;;;5.78;5.18;;;;;;;21.67;81.93;101040.34;4968419;28;20207;-79
2021/07/10 09:00:17;;;;;;;5.85;5.25;;;;;;;22.02;82.09;101028.69;4923062;29;20211;-78
2021/07/10 09:02:45;;;;;;;5.95;5.38;;;;;;;22.36;80.34;101022.03;4917015;28;20186;-77
2021/07/10 09:05:10;;;;;;;6.80;6.20;;;;;;;21.93;75.80;101029.09;4940231;28;20178;-78
2021/07/10 09:08:12;;;;;;;6.68;5.90;;;;;;;21.40;79.06;101025.38;4968753;28;20188;-78
2021/07/10 09:10:40;;;;;;;7.47;6.35;;;;;;;22.01;81.84;101031.78;4990499;28;20225;-76
2021/07/10 09:13:13;;;;;;;7.78;6.82;;;;;;;21.56;77.46;101027.25;4958977;28;20183;-76
2021/07/10 09:15:43;;;;;;;6.50;5.90;;;;;;;21.52;81.33;101023.53;4924006;28;20309;-76
2021/07/10 09:18:14;;;;;;;6.50;5.90;;;;;;;21.76;79.80;101029.22;4966576;28;20205;-77
2021/07/10 09:20:48;;;;;;;7.07;5.80;;;;;;;21.88;79.85;101032.84;4965945;28;20229;-76
2021/07/10 09:23:30;;;;;;;7.65;6.72;;;;;;;22.15;77.46;101037.84;4972955;28;20220;-78
2021/07/10 09:26:22;;;;;;;6.75;6.05;;;;;;;22.01;77.06;101029.84;4964826;28;20224;-77
2021/07/10 09:29:02;;;;;;;6.65;6.05;;;;;;;21.88;80.71;101027.31;4940276;28;20244;-75
2021/07/10 09:31:30;;;;;;;6.97;6.38;;;;;;;21.78;77.26;101032.47;4974233;28;20297;-76
2021/07/10 09:34:36;;;;;;;6.60;6.00;;;;;;;22.04;78.09;101029.13;4977041;28;20174;-76
2021/07/10 09:37:04;;;;;;;7.07;6.38;;;;;;;22.20;77.96;101024.66;4956464;28;20240;-76
2021/07/10 09:39:34;;;;;;;6.47;5.75;;;;;;;22.37;77.98;101034.75;4980808;28;20201;-76
2021/07/10 09:42:00;;;;;;;6.97;5.85;;;;;;;22.11;76.75;101032.19;4996004;28;20281;-77
2021/07/10 09:44:38;;;;;;;6.60;6.00;;;;;;;22.23;79.04;101043.31;4945492;28;20711;-76
2021/07/10 09:47:04;;;;;;;6.53;6.00;;;;;;;22.34;78.13;101030.69;4964630;28;20312;-76
2021/07/10 09:49:32;;;;;;;6.90;6.28;;;;;;;22.20;78.90;101032.94;4980582;28;20299;-76
2021/07/10 09:52:05;;;;;;;6.95;6.35;;;;;;;22.08;79.44;101038.38;4980402;28;20225;-75
2021/07/10 09:54:35;;;;;;;7.10;6.28;;;;;;;21.92;81.65;101041.28;4958324;28;20282;-75
2021/07/10 09:57:10;;;;;;;6.80;6.20;;;;;;;21.82;82.65;101033.41;4943245;28;20723;-77
2021/07/10 09:59:44;;;;;;;6.97;6.10;;;;;;;22.46;79.97;101034.31;4959722;28;20210;-76
2021/07/10 10:02:15;;;;;;;7.40;6.57;;;;;;;21.76;80.12;101041.09;4961830;28;20225;-76
2021/07/10 10:04:44;;;;;;;7.70;6.13;;;;;;;21.87;83.23;101038.75;4943124;28;20565;-75
2021/07/10 10:07:11;;;;;;;6.95;6.30;;;;;;;21.88;83.68;101032.06;4944807;28;20209;-78
2021/07/10 10:09:37;;;;;;;7.15;6.40;;;;;;;21.53;80.41;101047.25;4945354;28;20212;-76
2021/07/10 10:12:16;;;;;;;8.23;6.38;;;;;;;21.38;84.32;101050.59;4945253;28;20598;-77
2021/07/10 10:14:47;;;;;;;6.93;6.32;;;;;;;21.55;82.33;101047.75;4960543;28;20269;-76
2021/07/10 10:17:16;;;;;;;7.43;6.63;;;;;;;20.97;84.90;101048.81;4935308;28;20230;-76
2021/07/10 10:19:45;;;;;;;7.88;7.07;;;;;;;21.08;83.84;101050.06;4988122;28;20199;-77
2021/07/10 10:22:11;;;;;;;7.63;6.68;;;;;;;21.50;83.59;101045.19;5002436;28;20256;-76
2021/07/10 10:24:44;;;;;;;7.18;6.47;;;;;;;21.69;82.07;101045.56;4969429;28;20183;-75
2021/07/10 10:27:12;;;;;;;7.50;6.90;;;;;;;21.92;80.95;101038.53;4953504;28;20712;-77
2021/07/10 10:29:38;;;;;;;7.00;6.30;;;;;;;22.10;77.82;101049.13;4986495;28;20207;-77
2021/07/10 10:32:06;;;;;;;7.38;6.65;;;;;;;22.19;78.62;101030.50;4966608;28;20225;-77
2021/07/10 10:34:36;;;;;;;7.07;6.38;;;;;;;22.37;77.95;101030.00;4967895;28;20388;-77
2021/07/10 10:37:01;;;;;;;6.70;6.10;;;;;;;22.19;74.44;101033.28;4964169;28;20263;-75
2021/07/10 10:39:33;;;;;;;6.82;6.13;;;;;;;22.00;75.36;101030.97;4976328;28;20322;-77
2021/07/10 10:42:03;;;;;;;6.30;5.78;;;;;;;22.36;74.76;101027.56;4963299;28;20710;-78
2021/07/10 10:44:37;;;;;;;7.05;5.88;;;;;;;21.92;74.93;101044.06;4966061;28;20194;-74
2021/07/10 10:47:03;;;;;;;6.47;5.88;;;;;;;21.81;77.84;101032.59;4959130;28;20240;-74
2021/07/10 10:49:36;;;;;;;16.67;13.88;;;;;;;22.52;74.44;101029.38;4943969;28;20313;-74
2021/07/10 10:52:22;;;;;;;8.00;5.63;;;;;;;22.62;71.95;101028.91;4958814;28;20225;-75
2021/07/10 10:54:53;;;;;;;7.57;5.50;;;;;;;22.96;69.92;101016.31;4972620;28;20250;-75
2021/07/10 10:57:59;;;;;;;6.20;5.70;;;;;;;23.03;70.85;101024.06;4974406;28;20226;-78
2021/07/10 11:00:35;;;;;;;6.45;5.85;;;;;;;22.72;72.26;101020.19;4975931;28;20240;-75
2021/07/10 11:03:03;;;;;;;7.55;5.78;;;;;;;22.88;72.47;101022.78;4940372;28;20186;-75
2021/07/10 11:05:31;;;;;;;6.50;5.38;;;;;;;23.17;68.42;101017.03;4942820;28;20237;-77
2021/07/10 11:08:21;;;;;;;6.72;6.10;;;;;;;23.06;68.15;101010.34;4993719;28;20256;-74
2021/07/10 11:10:58;;;;;;;6.47;5.68;;;;;;;23.21;69.26;101018.75;4975888;28;20240;-76
2021/07/10 11:13:36;;;;;;;5.30;4.88;;;;;;;23.79;68.51;101007.97;4964394;28;20202;-76
2021/07/10 11:16:07;;;;;;;5.68;5.18;;;;;;;24.81;66.72;101000.19;4981166;28;20229;-77
2021/07/10 11:19:00;;;;;;;6.13;5.53;;;;;;;24.92;60.18;100987.38;4969731;28;20271;-80